Base Naval de Natal Heliport

SDG8 · Rio Grande do Norte, Brésil

METAR anciennes SDG8 · Base Naval de Natal Heliport

Tu vois ci-dessous les METAR des derniers jours. Sélectionne une année pour parcourir les METAR plus anciens, à partir de l'année 2007.

20 juin 2024

Temps Code Temps Temp. Vue Base cloud Vent METAR/SPECI
05:00
M
22 °C 10 km+ 1.800 ft 200° 200° 6 kt METAR SBNT 200800Z 20006KT 9999 FEW009 BKN018 BKN060 22/22 Q1012
04:00
M
23 °C 10 km+ 1.700 ft 190° 190° 8 kt METAR SBNT 200700Z 19008KT 9999 VCSH SCT009 BKN017 OVC050 23/22 Q1012
03:08
I
23 °C 3 km 1.700 ft 190° 190° 10 kt METAR SBNT 200608Z 19010KT 3000 -RA BR FEW008 BKN017 OVC050 23/22 Q1012
03:00
M
23 °C 10 km+ 1.700 ft 180° 180° 8 kt METAR SBNT 200600Z 18008KT 9999 -RA FEW008 BKN017 OVC050 23/22 Q1012
02:00
M
23 °C 10 km+ 1.700 ft 200° 200° 4 kt METAR SBNT 200500Z 20004KT 9999 FEW008 BKN017 OVC060 23/22 Q1012
01:00
I
23 °C 4 km 1.500 ft 210° 210° 10 kt METAR SBNT 200400Z 21010KT 4000 -RA BR FEW008 BKN015 OVC060 23/22 Q1013
00:00
M
23 °C 10 km+ 1.500 ft 150° 150° 4 kt METAR SBNT 200300Z 15004KT 9999 VCSH FEW008 BKN015 OVC060 23/23 Q1014 RERA

19 juin 2024

Temps Code Temps Temp. Vue Base cloud Vent METAR/SPECI
23:00
M
23 °C 10 km+ 1.900 ft 180° 180° 8 kt METAR SBNT 200200Z 18008KT 9999 VCSH FEW008 BKN019 BKN060 23/22 Q1014 RERA
22:00
I
23 °C 2 km 1.400 ft 150° 150° 10 kt METAR SBNT 200100Z 15010KT 2000 RA BR SCT007 BKN014 OVC050 23/22 Q1014
21:00
M
23 °C 7 km 6.000 ft 170° 170° 4 kt METAR SBNT 200000Z 17004KT 7000 -RA SCT007 SCT019 BKN060 23/22 Q1014 RERA
20:00
I
23 °C 4 km 900 ft 140° 140° 7 kt METAR SBNT 192300Z 14007KT 4000 -RA FEW005 BKN009 OVC025 23/22 Q1014 RERA
19:00
M
23 °C 8 km 2.100 ft 160° 160° 8 kt METAR SBNT 192200Z 16008KT 8000 -RA SCT009 BKN021 23/22 Q1013
18:00
I
24 °C 10 km+ 700 ft 160° 160° 8 kt METAR SBNT 192100Z 16008KT 9999 BKN007 BKN018 24/23 Q1013
17:00
M
24 °C 9 km 1.300 ft 190° 190° 6 kt METAR SBNT 192000Z 19006KT 9000 SCT007 BKN013 BKN025 24/23 Q1012
16:00
I
24 °C 3 km 1.900 ft 150° 150° 7 kt METAR SBNT 191900Z 15007KT 110V170 3000 -RA BR SCT009 BKN019 FEW023TCU OVC030 24/23 Q1012
15:00
I
25 °C 3 km 2.000 ft 160° 160° 12 kt METAR SBNT 191800Z 16012KT 3000 -RA BR SCT012 BKN020 FEW023TCU 25/23 Q1012
14:00
M
27 °C 9 km 2.100 ft 140° 140° 14 kt METAR SBNT 191700Z 14014KT 9000 4000E VCSH BKN021 FEW023TCU 27/23 Q1012
13:00
V
26 °C 10 km+ 3.500 ft 150° 150° 12 kt METAR SBNT 191600Z 15012KT 9999 VCSH SCT018 FEW021TCU BKN035 26/24 Q1012
12:00
V
28 °C 10 km+ 4.500 ft 160° 160° 12 kt METAR SBNT 191500Z 16012KT 9999 VCSH SCT019 BKN045 28/23 Q1013
11:00
M
27 °C 10 km+ 1.800 ft 150° 150° 10 kt METAR SBNT 191400Z 15010KT 9999 VCSH BKN018 BKN040 27/23 Q1014
10:00
M
26 °C 10 km+ 1.500 ft 170° 170° 10 kt METAR SBNT 191300Z 17010KT 9999 VCSH BKN015 BKN035 26/23 Q1015
09:00
V
25 °C 10 km+ 3.500 ft 160° 160° 8 kt METAR SBNT 191200Z 16008KT 9999 VCSH SCT012 SCT021 BKN035 25/23 Q1015
08:00
I
24 °C 10 km+ 900 ft 170° 170° 10 kt METAR SBNT 191100Z 17010KT 9999 BKN009 BKN040 24/22 Q1015
07:00
V
23 °C 10 km+ 3.300 ft 190° 190° 8 kt METAR SBNT 191000Z 19008KT 9999 VCSH FEW007 SCT020 BKN033 23/22 Q1014
06:00
M
23 °C 8 km 2.200 ft 190° 190° 7 kt METAR SBNT 190900Z 19007KT 8000 3000S -RA FEW011 BKN022 23/22 Q1013
05:00
V
23 °C 10 km+ 5.000 ft 180° 180° 7 kt METAR SBNT 190800Z 18007KT 9999 FEW007 BKN050 23/22 Q1013
04:00
V
22 °C 10 km+ - 200° 200° 6 kt METAR SBNT 190700Z 20006KT 9999 FEW021 22/21 Q1012
03:00
V
23 °C 10 km+ - 160° 160° 5 kt METAR SBNT 190600Z 16005KT 9999 SCT021 23/22 Q1012
02:00
V
23 °C 10 km+ 4.900 ft 190° 190° 7 kt METAR SBNT 190500Z 19007KT 9999 BKN049 23/22 Q1012
01:00
V
23 °C 10 km+ - 200° 200° 8 kt METAR SBNT 190400Z 20008KT 180V240 9999 SCT033 23/22 Q1013
00:00
V
24 °C 10 km+ - 140° 140° 8 kt METAR SBNT 190300Z 14008KT 9999 FEW033 SCT050 24/22 Q1013

18 juin 2024

Temps Code Temps Temp. Vue Base cloud Vent METAR/SPECI
23:00
V
24 °C 10 km+ - 170° 170° 6 kt METAR SBNT 190200Z 17006KT 9999 FEW019 SCT050 24/21 Q1014
22:00
V
23 °C 10 km+ 5.000 ft 170° 170° 4 kt METAR SBNT 190100Z 17004KT 9999 FEW033 BKN050 23/21 Q1014
21:00
V
24 °C 10 km+ - 180° 180° 6 kt METAR SBNT 190000Z 18006KT 9999 FEW020 24/21 Q1014
20:00
V
25 °C 10 km+ 7.000 ft 190° 190° 4 kt METAR SBNT 182300Z 19004KT 9999 FEW021 BKN070 25/20 Q1013
19:00
V
25 °C 10 km+ 5.000 ft 170° 170° 6 kt METAR SBNT 182200Z 17006KT 9999 FEW021 BKN050 25/20 Q1012
18:00
V
25 °C 10 km+ 4.500 ft 140° 140° 6 kt METAR SBNT 182100Z 14006KT 9999 FEW023 BKN045 25/21 Q1012
17:00
V
26 °C 10 km+ 4.000 ft 110° 110° 12 kt METAR SBNT 182000Z 11012KT 9999 VCSH FEW023 BKN040 26/20 Q1012
16:00
V
27 °C 10 km+ 4.500 ft 140° 140° 14 kt METAR SBNT 181900Z 14014KT 9999 FEW030 BKN045 27/21 Q1011
15:00
V
28 °C 10 km+ 5.000 ft 140° 140° 16 kt METAR SBNT 181800Z 14016KT 9999 FEW030 BKN050 28/20 Q1011
14:00
V
29 °C 10 km+ - 140° 140° 16 kt METAR SBNT 181700Z 14016KT 9999 FEW033 SCT050 29/21 Q1011
13:00
V
30 °C 10 km+ 5.000 ft 140° 140° 12 kt METAR SBNT 181600Z 14012KT 9999 FEW033 BKN050 30/20 Q1012
12:00
V
29 °C 10 km+ - 140° 140° 15 kt METAR SBNT 181500Z 14015KT 9999 FEW033 SCT050 29/22 Q1013
11:00
V
28 °C 10 km+ 4.000 ft 130° 130° 15 kt METAR SBNT 181400Z 13015KT 9999 SCT033 BKN040 28/21 Q1013
10:00
V
28 °C 10 km+ - 130° 130° 12 kt METAR SBNT 181300Z 13012KT 9999 FEW017 SCT040 28/22 Q1014
09:00
M
25 °C 10 km+ 2.100 ft 160° 160° 11 kt METAR SBNT 181200Z 16011KT 130V190 9999 VCSH SCT013 BKN021 25/23 Q1014
08:00
V
25 °C 10 km+ - 160° 160° 7 kt METAR SBNT 181100Z 16007KT 9999 SCT040 25/23 Q1014
07:00
V
23 °C 10 km+ - 180° 180° 6 kt METAR SBNT 181000Z 18006KT 9999 VCSH SCT023 23/21 Q1013
06:00
V
22 °C 10 km+ - 200° 200° 3 kt METAR SBNT 180900Z 20003KT 160V240 9999 SCT023 22/21 Q1013
05:00
V
22 °C 10 km+ - Var Var 2 kt METAR SBNT 180800Z VRB02KT 9999 FEW023 SCT050 22/21 Q1012
04:00
V
22 °C 10 km+ - 180° 180° 4 kt METAR SBNT 180700Z 18004KT 9999 SCT023 SCT070 22/21 Q1012
03:00
V
22 °C 10 km+ 7.000 ft Var Var 3 kt METAR SBNT 180600Z VRB03KT 9999 SCT023 BKN070 22/21 Q1012
Signaler les modifications